Latest Weather Observations for kunanyi / Mount Wellington

IDT60901

Issued at 6:31 pm EST Wednesday 28 September 2016 (issued every 10 minutes, with the page automatically refreshed every 10 minutes)

About weather observations | Map of Hobart area stations | Latest observations for Hobart area | Other Formats
Station Details ID: 094087 Name: KUNANYI (MOUNT WELLINGTON PINNACLE) Lat: -42.90 Lon: 147.24 Height: 1260.47 m
Data from the previous 72 hours. | See also: Recent months at kunanyi / Mount Wellington
Date/Time
EST
Temp
°C
App
Temp
°C
Dew
Point
°C
Rel
Hum
%
Delta-T
°C
Wind Press
QNH
hPa
Press
MSL
hPa
Rain since
9am
mm
Dir  Spd
km/h
Gust
km/h
Spd
kts
Gust
kts
28/06:30pm 3.1 -3.4 2.8 98 0.1 NNE 26 32 14 17 - - 0.0
28/06:00pm 3.0 -3.5 2.7 98 0.1 NE 26 33 14 18 - - 0.0
28/05:30pm 3.2 -2.5 2.9 98 0.1 NE 22 32 12 17 - - 0.0
28/05:00pm 3.2 -1.6 2.8 97 0.2 ENE 17 26 9 14 - - 0.0
28/04:30pm 3.2 -0.5 2.5 95 0.3 E 11 17 6 9 - - 0.0
28/04:00pm 4.2 -0.3 2.4 88 0.8 E 15 22 8 12 - - 0.0
28/03:30pm 4.8 0.6 1.7 80 1.3 E 13 20 7 11 - - 0.0
28/03:00pm 5.1 1.5 0.3 71 2.0 E 9 15 5 8 - - 0.0
28/02:30pm 5.0 0.8 -0.6 67 2.3 E 11 17 6 9 - - 0.0
28/02:00pm 8.2 2.7 0.4 58 3.4 NNE 19 28 10 15 - - 0.0
28/01:30pm 7.0 1.0 -1.2 56 3.4 NNE 20 32 11 17 - - 0.0
28/01:00pm 5.8 -0.3 -2.0 57 3.1 NNE 20 28 11 15 - - 0.0
28/12:30pm 5.9 0.8 0.7 69 2.2 NNE 17 24 9 13 - - 0.0
28/12:00pm 5.7 0.7 1.1 72 2.0 NNE 17 26 9 14 - - 0.0
28/11:30am 4.4 -0.8 0.0 73 1.8 NNE 17 26 9 14 - - 0.0
28/11:00am 4.4 0.1 0.9 78 1.5 NNE 13 19 7 10 - - 0.0
28/10:30am 3.8 -0.2 0.5 79 1.4 NE 11 17 6 9 - - 0.0
28/10:00am 3.8 0.2 0.8 81 1.3 NE 9 13 5 7 - - 0.0
28/09:30am 3.8 0.3 -2.6 63 2.5 SSW 6 9 3 5 - - 0.0
28/09:00am 2.9 -1.6 -3.4 63 2.3 SW 11 17 6 9 - - 0.8
28/08:30am 2.5 -2.2 -4.7 59 2.7 SW 11 20 6 11 - - 0.8
28/08:00am 1.8 -2.8 -4.3 64 2.3 SW 11 19 6 10 - - 0.8
28/07:30am 1.0 -5.2 -5.2 63 2.2 WSW 19 28 10 15 - - 0.8
28/07:00am 0.7 -5.0 -3.8 72 1.7 W 17 26 9 14 - - 0.8
28/06:30am 0.5 -5.9 -4.5 69 1.8 WSW 20 32 11 17 - - 0.8
28/06:00am -0.1 -7.4 -2.5 84 0.9 W 26 37 14 20 - - 0.8
28/05:30am -0.1 -7.5 -3.8 76 1.3 W 26 35 14 19 - - 0.8
28/05:00am -0.3 -7.2 -2.7 84 0.9 W 24 30 13 16 - - 0.8
28/04:30am 0.1 -8.8 -1.8 87 0.7 W 35 46 19 25 - - 0.8
28/04:00am 0.5 -7.8 -0.1 96 0.2 W 33 46 18 25 - - 0.8
28/03:30am 0.9 -8.1 0.2 95 0.3 WSW 37 48 20 26 - - 0.8
28/03:00am 1.4 -8.2 1.0 97 0.2 W 41 50 22 27 - - 0.8
28/02:30am 1.5 -7.4 0.9 96 0.2 W 37 50 20 27 - - 0.8
28/02:00am 1.7 -7.5 1.0 95 0.3 WNW 39 48 21 26 - - 0.8
28/01:30am 1.8 -7.2 0.3 90 0.6 WNW 37 50 20 27 - - 0.8
28/01:00am 2.1 -5.6 -0.3 84 1.0 W 30 41 16 22 - - 0.8
28/12:30am 1.5 -5.9 -0.7 85 0.9 W 28 37 15 20 - - 0.8
28/12:00am 1.8 -4.9 1.2 96 0.2 WNW 26 33 14 18 - - 0.8
 
Date/Time
EST
Temp
°C
App
Temp
°C
Dew
Point
°C
Rel
Hum
%
Delta-T
°C
Wind Press
QNH
hPa
Press
MSL
hPa
Rain since
9am
mm
Dir  Spd
km/h
Gust
km/h
Spd
kts
Gust
kts
27/11:30pm 1.8 -4.1 1.5 98 0.1 WNW 22 28 12 15 - - 0.8
27/11:00pm 2.5 -3.4 1.9 96 0.3 WNW 22 28 12 15 - - 0.8
27/10:30pm 2.7 -2.5 2.4 98 0.1 NW 19 22 10 12 - - 0.8
27/10:00pm 3.0 -0.6 2.7 98 0.1 WNW 11 15 6 8 - - 0.8
27/09:30pm 3.4 0.2 3.1 98 0.1 WNW 9 13 5 7 - - 0.8
27/09:00pm 3.8 1.2 3.4 97 0.2 NNW 6 9 3 5 - - 0.8
27/08:30pm 3.8 1.0 3.2 96 0.3 N 7 9 4 5 - - 0.8
27/08:00pm 4.0 1.3 2.7 91 0.6 N 6 7 3 4 - - 0.4
27/07:30pm 4.2 1.4 3.2 93 0.4 NNE 7 9 4 5 - - 0.4
27/07:00pm 3.8 1.1 2.8 93 0.4 NNE 6 9 3 5 - - 0.4
27/06:30pm 4.4 1.6 1.8 83 1.1 NNE 6 7 3 4 - - 0.4
27/06:00pm 4.5 1.6 1.4 80 1.3 N 6 6 3 3 - - 0.4
27/05:30pm 4.7 1.5 0.8 76 1.6 N 7 9 4 5 - - 0.4
27/05:00pm 5.1 1.9 1.0 75 1.7 N 7 9 4 5 - - 0.4
27/04:30pm 5.6 2.1 1.3 74 1.9 NNW 9 15 5 8 - - 0.4
27/04:00pm 6.2 2.0 1.5 72 2.0 N 13 17 7 9 - - 0.4
27/03:30pm 5.9 2.1 1.6 74 1.9 NNE 11 19 6 10 - - 0.4
27/03:00pm 8.3 3.8 1.9 64 2.9 NNE 15 22 8 12 - - 0.4
27/02:30pm 6.6 1.7 1.7 71 2.1 N 17 24 9 13 - - 0.4
27/02:00pm 7.3 3.2 2.0 69 2.4 N 13 24 7 13 - - 0.4
27/01:30pm 7.6 3.8 1.7 66 2.6 NNE 11 20 6 11 - - 0.4
27/01:00pm 7.4 3.3 2.3 70 2.3 N 13 20 7 11 - - 0.4
27/12:30pm 6.8 3.6 2.9 76 1.8 ENE 9 22 5 12 - - 0.4
27/12:00pm 6.9 3.2 4.7 86 1.0 NNE 13 20 7 11 - - 0.4
27/11:30am 3.6 0.6 2.3 91 0.6 NE 7 15 4 8 - - 0.4
27/11:00am 3.7 0.1 2.7 93 0.4 N 11 15 6 8 - - 0.4
27/10:30am 4.2 1.3 2.6 89 0.7 NNW 7 13 4 7 - - 0.4
27/10:00am 3.7 1.7 2.2 90 0.6 NNW 2 9 1 5 - - 0.4
27/09:30am 3.2 1.4 1.3 87 0.8 CALM 0 0 0 0 - - 0.4
27/09:00am 2.9 1.0 0.6 85 0.9 CALM 0 0 0 0 - - 3.6
27/08:30am 2.4 0.6 0.9 90 0.6 CALM 0 0 0 0 - - 3.4
27/08:00am 2.2 0.4 1.2 93 0.4 CALM 0 0 0 0 - - 2.0
27/07:30am 1.3 -1.5 -0.5 88 0.7 WNW 4 7 2 4 - - 0.6
27/07:00am 0.8 -2.4 -0.8 89 0.6 NW 6 7 3 4 - - 0.6
27/06:30am 0.8 -2.7 -1.1 87 0.7 NW 7 9 4 5 - - 0.6
27/06:00am -0.1 -4.0 -1.5 90 0.5 NW 9 9 5 5 - - 0.6
27/05:30am 0.4 -3.0 -0.7 92 0.4 NNW 7 7 4 4 - - 0.6
27/05:00am 0.2 -3.3 -1.2 90 0.5 NNW 7 7 4 4 - - 0.6
27/04:30am 0.3 -3.2 -1.1 90 0.6 NNW 7 7 4 4 - - 0.6
27/04:00am 0.2 -3.3 -1.4 89 0.6 N 7 9 4 5 - - 0.6
27/03:30am 0.6 -3.2 -0.8 90 0.5 N 9 9 5 5 - - 0.6
27/03:00am 0.6 -2.8 -0.7 91 0.5 N 7 9 4 5 - - 0.6
27/02:30am 0.6 -3.2 -0.4 93 0.4 N 9 13 5 7 - - 0.6
27/02:00am 0.5 -2.7 -0.4 94 0.4 N 6 9 3 5 - - 0.6
27/01:30am 0.7 -1.3 -0.3 93 0.4 CALM 0 0 0 0 - - 0.6
27/01:00am 0.7 -1.3 -0.2 94 0.4 CALM 0 0 0 0 - - 0.6
27/12:30am 0.8 -1.2 -0.3 92 0.4 CALM 0 0 0 0 - - 0.6
27/12:00am 1.0 -1.0 -0.3 91 0.5 CALM 0 0 0 0 - - 0.6
 
Date/Time
EST
Temp
°C
App
Temp
°C
Dew
Point
°C
Rel
Hum
%
Delta-T
°C
Wind Press
QNH
hPa
Press
MSL
hPa
Rain since
9am
mm
Dir  Spd
km/h
Gust
km/h
Spd
kts
Gust
kts
26/11:30pm 1.2 -0.8 -0.4 89 0.6 CALM 0 2 0 1 - - 0.6
26/11:00pm 1.4 -1.8 -0.2 89 0.6 NW 6 6 3 3 - - 0.6
26/10:30pm 1.1 -2.1 -0.2 91 0.5 NW 6 9 3 5 - - 0.6
26/10:00pm 0.4 -3.7 0.0 97 0.2 WNW 11 13 6 7 - - 0.4
26/09:30pm 0.4 -2.7 0.1 98 0.1 N 6 7 3 4 - - 0.4
26/09:00pm 0.2 -3.5 -0.2 97 0.2 NW 9 13 5 7 - - 0.4
26/08:30pm 1.2 -3.1 0.8 97 0.2 N 13 22 7 12 - - 0.2
26/08:00pm 2.2 0.5 1.6 96 0.3 CALM 0 0 0 0 - - 0.0
26/07:30pm 2.3 0.4 0.7 89 0.7 CALM 0 0 0 0 - - 0.0
26/07:00pm 2.2 -0.5 0.4 88 0.7 ENE 4 4 2 2 - - 0.0
26/06:30pm 2.3 -0.4 0.2 86 0.8 ENE 4 7 2 4 - - 0.0
26/06:00pm 2.3 -0.4 0.2 86 0.8 ENE 4 7 2 4 - - 0.0
26/05:30pm 3.2 -0.2 -0.6 76 1.5 NNE 7 9 4 5 - - 0.0
26/05:00pm 3.6 0.2 -0.8 73 1.8 N 7 9 4 5 - - 0.0
26/04:30pm 3.1 0.5 1.2 87 0.8 E 4 9 2 5 - - 0.0
26/04:00pm 3.8 0.6 0.7 80 1.3 E 7 13 4 7 - - 0.0
26/03:30pm 5.8 2.2 -1.8 58 3.0 NNE 7 11 4 6 - - 0.0
26/03:00pm 5.5 -0.5 -3.3 53 3.4 N 19 26 10 14 - - 0.0
26/02:30pm 6.8 1.2 -2.9 50 3.8 NNW 17 28 9 15 - - 0.0
26/02:00pm 6.2 0.6 -2.7 53 3.5 NNW 17 28 9 15 - - 0.0
26/01:30pm 5.5 -0.4 -0.5 65 2.5 N 20 30 11 16 - - 0.0
26/01:00pm 4.9 -0.8 -0.5 68 2.2 N 19 35 10 19 - - 0.0
26/12:30pm 4.8 -0.9 -0.6 68 2.2 NNW 19 33 10 18 - - 0.0
26/12:00pm 4.0 -1.7 -0.4 73 1.8 N 19 28 10 15 - - 0.0
26/11:30am 4.4 -1.3 -0.6 70 2.0 N 19 28 10 15 - - 0.0
26/11:00am 4.4 -1.0 -1.0 68 2.2 N 17 24 9 13 - - 0.0
26/10:30am 3.7 -0.9 -1.3 70 2.0 N 13 26 7 14 - - 0.0
26/10:00am 2.0 -2.2 -1.2 79 1.2 NNW 11 17 6 9 - - 0.0
26/09:30am 2.4 -1.2 -2.3 71 1.8 N 7 13 4 7 - - 0.0
26/09:00am 2.6 -1.7 -1.4 75 1.6 N 11 15 6 8 - - 0.0
26/08:30am 2.7 -2.3 -4.7 58 2.6 N 13 19 7 10 - - 0.0
26/08:00am 2.0 -1.7 -2.7 71 1.8 NNE 7 11 4 6 - - 0.0
26/07:30am 1.6 -3.4 -4.5 64 2.3 NNW 13 17 7 9 - - 0.0
26/07:00am 0.6 -4.5 -5.2 65 2.0 N 13 17 7 9 - - 0.0
26/06:30am -0.3 -4.6 -4.9 71 1.6 N 9 11 5 6 - - 0.0
26/06:00am 0.0 -4.0 -5.6 66 1.9 N 7 9 4 5 - - 0.0
26/05:30am 0.3 -3.2 -6.1 62 2.2 NW 4 6 2 3 - - 0.0
26/05:00am 0.2 -3.8 -6.0 63 2.1 NNW 7 9 4 5 - - 0.0
26/04:30am 0.2 -3.8 -5.2 67 1.9 NNW 7 9 4 5 - - 0.0
26/04:00am -0.3 -5.0 -4.7 72 1.5 WNW 11 13 6 7 - - 0.0
26/03:30am 0.7 -2.2 -4.5 68 1.9 NNW 2 4 1 2 - - 0.0
26/03:00am -0.5 -3.3 -3.2 82 1.0 WNW 2 6 1 3 - - 0.0
26/02:30am 0.2 -2.6 -3.7 75 1.4 SE 2 6 1 3 - - 0.0
26/02:00am -0.7 -5.1 -2.6 87 0.7 SW 11 15 6 8 - - 0.0
26/01:30am -1.3 -7.3 -1.7 97 0.1 SW 20 24 11 13 - - 0.0
26/01:00am -0.7 -6.8 -2.1 90 0.5 SW 20 24 11 13 - - 0.0
26/12:30am -1.0 -7.8 -1.8 94 0.2 WSW 24 32 13 17 - - 0.0
26/12:00am -1.2 -9.1 -1.9 95 0.2 WSW 30 35 16 19 - - 0.0
 
Date/Time
EST
Temp
°C
App
Temp
°C
Dew
Point
°C
Rel
Hum
%
Delta-T
°C
Wind Press
QNH
hPa
Press
MSL
hPa
Rain since
9am
mm
Dir  Spd
km/h
Gust
km/h
Spd
kts
Gust
kts
25/11:30pm -0.9 -9.8 -2.0 92 0.4 SW 35 43 19 23 - - 0.0
25/11:00pm -0.8 -8.5 -3.0 85 0.8 WSW 28 35 15 19 - - 0.0
25/10:30pm -1.1 -8.8 -3.3 85 0.7 SW 28 35 15 19 - - 0.0
25/10:00pm -1.0 -10.0 -2.7 88 0.6 SW 35 43 19 23 - - 0.0
25/09:30pm -1.0 -10.3 -2.1 92 0.4 WSW 37 46 20 25 - - 0.0
25/09:00pm -0.7 -12.2 -2.6 87 0.7 WSW 48 56 26 30 - - 0.0
25/08:30pm -0.8 -12.2 -1.9 92 0.4 WSW 48 57 26 31 - - 0.0
25/08:00pm -0.7 -11.2 -2.6 87 0.7 WSW 43 54 23 29 - - 0.0
25/07:30pm -0.6 -10.0 -3.1 83 0.9 WSW 37 44 20 24 - - 0.0
25/07:00pm -0.2 -11.4 -3.4 79 1.1 WSW 46 54 25 29 - - 0.0

Latest Capital City Observations: Canberra | Sydney | Melbourne | Brisbane | Adelaide | Perth | Hobart | Darwin

Other Formats:

Comma delimited format used in spreadsheet applications
http://www.bom.gov.au/fwo/IDT60901/IDT60901.95979.axf

JavaScript Object Notation format (JSON) in row-major order
http://www.bom.gov.au/fwo/IDT60901/IDT60901.95979.json